Terminal Aerodrome Forecast
Issued by NWS Cleveland, OH

Home | Current Version | Previous Version | Text Only | Print | Product List | Glossary Off
Versions: 1 2 3 4 5 6 7 8 9 10 11 12 13 14 15 16 17 18

000
FTUS41 KCLE 161740 AAB
TAFTOL
TAF AMD
KTOL 161740Z 1618/1718 26016G26KT P6SM OVC019
      TEMPO 1620/1624 OVC020
     FM170000 27016KT P6SM OVC015
     FM171200 27015G25KT P6SM OVC025=

USA.gov is the U.S. government's official web portal to all federal, state and local government web resources and services.